createdAt,value
2018-06-10T00:01:02.881Z,100239.21
2018-06-10T00:03:36.283Z,100235.67
2018-06-10T00:06:09.700Z,100235.67
2018-06-10T00:08:43.086Z,100231.52
2018-06-10T00:11:16.499Z,100231.52
2018-06-10T00:13:49.908Z,100235.42
2018-06-10T00:16:23.303Z,100231.99
2018-06-10T00:18:56.953Z,100231.03
2018-06-10T00:21:30.367Z,100228.44
2018-06-10T00:24:03.772Z,100221.71
2018-06-10T00:26:37.240Z,100221.81
2018-06-10T00:29:15.866Z,100217.21
2018-06-10T00:31:49.751Z,100198.84
2018-06-10T00:34:23.120Z,100204.66
2018-06-10T00:36:56.568Z,100202.28
2018-06-10T00:39:29.987Z,100194.13
2018-06-10T00:42:03.408Z,100205.59
2018-06-10T00:44:36.816Z,100201.44
2018-06-10T00:47:10.228Z,100197.76
2018-06-10T00:49:43.612Z,100190.55
2018-06-10T00:52:17.096Z,100185.23
2018-06-10T00:54:50.455Z,100182.25
2018-06-10T00:57:23.839Z,100190.28
2018-06-10T00:59:57.240Z,100185.40
2018-06-10T01:02:30.648Z,100185.53
2018-06-10T01:05:04.026Z,100189.66
2018-06-10T01:07:37.429Z,100188.92
2018-06-10T01:10:10.820Z,100182.42
2018-06-10T01:12:44.252Z,100180.75
2018-06-10T01:15:17.659Z,100186.33
2018-06-10T01:17:51.080Z,100183.25
2018-06-10T01:20:24.455Z,100178.97
2018-06-10T01:22:57.899Z,100180.75
2018-06-10T01:25:31.301Z,100179.58
2018-06-10T01:28:04.715Z,100174.47
2018-06-10T01:30:38.100Z,100168.45
2018-06-10T01:33:11.495Z,100177.55
2018-06-10T01:35:44.890Z,100171.52
2018-06-10T01:38:18.285Z,100171.96
2018-06-10T01:40:51.664Z,100168.06
2018-06-10T01:43:25.058Z,100166.03
2018-06-10T01:45:58.452Z,100170.53
2018-06-10T01:48:31.856Z,100174.78
2018-06-10T01:51:05.298Z,100171.70
2018-06-10T01:53:38.732Z,100167.94
2018-06-10T01:56:12.107Z,100170.16
2018-06-10T01:58:45.504Z,100170.72
2018-06-10T02:01:18.911Z,100169.55
2018-06-10T02:03:52.307Z,100171.42
2018-06-10T02:06:26.010Z,100169.03
2018-06-10T02:08:59.429Z,100171.50
2018-06-10T02:11:32.837Z,100168.55
2018-06-10T02:14:06.285Z,100163.10
2018-06-10T02:16:39.680Z,100167.13
2018-06-10T02:19:13.124Z,100164.62
2018-06-10T02:21:46.552Z,100165.45
2018-06-10T02:24:19.959Z,100162.84
2018-06-10T02:26:53.336Z,100161.20
2018-06-10T02:29:26.771Z,100159.55
2018-06-10T02:32:00.145Z,100162.14
2018-06-10T02:34:33.547Z,100161.42
2018-06-10T02:37:06.931Z,100159.03
2018-06-10T02:39:40.323Z,100155.35
2018-06-10T02:42:13.710Z,100158.20
2018-06-10T02:44:47.138Z,100154.40
2018-06-10T02:47:20.543Z,100148.03
2018-06-10T02:49:53.948Z,100150.62
2018-06-10T02:52:27.429Z,100143.05
2018-06-10T02:55:00.841Z,100144.00
2018-06-10T02:57:34.240Z,100148.78
2018-06-10T03:00:07.665Z,100148.64
2018-06-10T03:02:41.052Z,100149.24
2018-06-10T03:05:14.461Z,100144.48
2018-06-10T03:07:47.943Z,100141.45
2018-06-10T03:10:21.280Z,100135.52
2018-06-10T03:12:54.692Z,100134.44
2018-06-10T03:15:28.108Z,100131.58
2018-06-10T03:18:01.528Z,100134.66
2018-06-10T03:20:34.931Z,100135.03
2018-06-10T03:23:08.316Z,100136.33
2018-06-10T03:25:41.707Z,100134.79
2018-06-10T03:28:15.119Z,100133.14
2018-06-10T03:30:48.510Z,100130.76
2018-06-10T03:33:21.914Z,100131.49
2018-06-10T03:35:55.317Z,100134.09
2018-06-10T03:38:28.721Z,100135.95
2018-06-10T03:41:02.292Z,100138.45
2018-06-10T03:43:35.709Z,100142.83
2018-06-10T03:46:09.109Z,100142.92
2018-06-10T03:48:42.542Z,100146.25
2018-06-10T03:51:15.919Z,100144.73
2018-06-10T03:53:49.331Z,100142.02
2018-06-10T03:56:22.711Z,100157.03
2018-06-10T03:58:56.181Z,100146.99
2018-06-10T04:01:29.655Z,100142.63
2018-06-10T04:04:03.052Z,100139.91
2018-06-10T04:06:36.487Z,100144.06
2018-06-10T04:09:09.888Z,100148.13
2018-06-10T04:11:43.298Z,100144.95
2018-06-10T04:14:16.725Z,100149.55
2018-06-10T04:16:50.105Z,100151.80
2018-06-10T04:19:23.542Z,100165.05
2018-06-10T04:21:56.963Z,100167.30
2018-06-10T04:24:30.370Z,100167.13
2018-06-10T04:27:03.748Z,100167.25
2018-06-10T04:29:37.172Z,100174.05
2018-06-10T04:32:10.548Z,100173.45
2018-06-10T04:34:43.957Z,100178.94
2018-06-10T04:37:17.347Z,100174.35
2018-06-10T04:39:50.767Z,100169.89
2018-06-10T04:42:24.152Z,100173.33
2018-06-10T04:44:57.630Z,100166.99
2018-06-10T04:47:31.003Z,100169.12
2018-06-10T04:50:04.419Z,100167.04
2018-06-10T04:52:37.804Z,100154.56
2018-06-10T04:55:11.212Z,100167.37
2018-06-10T04:57:44.615Z,100170.25
2018-06-10T05:00:18.069Z,100164.75
2018-06-10T05:02:51.475Z,100160.77
2018-06-10T05:05:24.876Z,100155.82
2018-06-10T05:07:58.280Z,100164.91
2018-06-10T05:10:31.666Z,100169.27
2018-06-10T05:13:05.087Z,100157.95
2018-06-10T05:15:38.531Z,100154.56
2018-06-10T05:18:11.927Z,100154.46
2018-06-10T05:20:46.185Z,100169.16
2018-06-10T05:23:19.786Z,100160.34
2018-06-10T05:25:53.458Z,100160.07
2018-06-10T05:28:26.895Z,100160.34
2018-06-10T05:31:00.307Z,100161.63
2018-06-10T05:33:33.701Z,100157.88
2018-06-10T05:36:07.114Z,100172.63
2018-06-10T05:38:40.491Z,100171.98
2018-06-10T05:41:13.862Z,100162.93
2018-06-10T05:43:47.245Z,100172.37
2018-06-10T05:46:21.039Z,100166.41
2018-06-10T05:48:54.447Z,100166.91
2018-06-10T05:51:27.938Z,100170.05
2018-06-10T05:54:01.425Z,100176.80
2018-06-10T05:56:34.853Z,100175.66
2018-06-10T05:59:08.532Z,100169.42
2018-06-10T06:01:41.953Z,100169.16
2018-06-10T06:04:15.472Z,100171.85
2018-06-10T06:06:48.897Z,100177.85
2018-06-10T06:09:22.317Z,100177.63
2018-06-10T06:11:55.796Z,100170.39
2018-06-10T06:14:29.221Z,100174.76
2018-06-10T06:17:02.618Z,100177.14
2018-06-10T06:19:35.998Z,100170.83
2018-06-10T06:22:09.399Z,100179.84
2018-06-10T06:24:42.770Z,100179.66
2018-06-10T06:27:16.178Z,100187.56
2018-06-10T06:29:49.568Z,100179.92
2018-06-10T06:32:22.940Z,100187.88
2018-06-10T06:34:56.344Z,100185.48
2018-06-10T06:37:29.743Z,100188.63
2018-06-10T06:40:03.180Z,100189.96
2018-06-10T06:42:36.618Z,100195.36
2018-06-10T06:45:10.003Z,100193.25
2018-06-10T06:47:43.400Z,100194.97
2018-06-10T06:50:16.808Z,100200.63
2018-06-10T06:52:50.237Z,100202.91
2018-06-10T06:55:23.661Z,100197.69
2018-06-10T06:57:57.166Z,100203.25
2018-06-10T07:00:30.517Z,100204.83
2018-06-10T07:03:03.899Z,100212.81
2018-06-10T07:05:37.296Z,100207.97
2018-06-10T07:08:10.661Z,100210.22
2018-06-10T07:10:44.029Z,100210.70
2018-06-10T07:13:17.403Z,100215.32
2018-06-10T07:15:50.821Z,100214.77
2018-06-10T07:18:24.192Z,100212.97
2018-06-10T07:20:58.404Z,100215.47
2018-06-10T07:23:31.768Z,100214.23
2018-06-10T07:26:05.184Z,100218.49
2018-06-10T07:28:38.593Z,100219.91
2018-06-10T07:31:12.002Z,100211.14
2018-06-10T07:33:45.421Z,100219.64
2018-06-10T07:36:18.820Z,100219.64
2018-06-10T07:38:52.185Z,100222.17
2018-06-10T07:41:25.612Z,100218.61
2018-06-10T07:43:58.992Z,100215.26
2018-06-10T07:46:32.379Z,100207.14
2018-06-10T07:49:05.792Z,100209.16
2018-06-10T07:51:39.191Z,100216.04
2018-06-10T07:54:12.567Z,100212.17
2018-06-10T07:56:45.969Z,100211.75
2018-06-10T07:59:19.410Z,100206.37
2018-06-10T08:01:52.832Z,100203.55
2018-06-10T08:04:26.231Z,100207.43
2018-06-10T08:06:59.669Z,100207.84
2018-06-10T08:09:33.097Z,100202.25
2018-06-10T08:12:06.543Z,100209.11
2018-06-10T08:14:39.971Z,100198.17
2018-06-10T08:17:13.393Z,100194.42
2018-06-10T08:19:46.781Z,100192.92
2018-06-10T08:22:20.213Z,100193.16
2018-06-10T08:24:53.616Z,100197.94
2018-06-10T08:27:27.054Z,100192.83
2018-06-10T08:30:00.470Z,100192.75
2018-06-10T08:32:34.170Z,100195.14
2018-06-10T08:35:07.633Z,100193.39
2018-06-10T08:37:41.007Z,100192.56
2018-06-10T08:40:14.378Z,100182.77
2018-06-10T08:42:47.791Z,100187.99
2018-06-10T08:45:21.180Z,100189.41
2018-06-10T08:47:54.585Z,100199.45
2018-06-10T08:50:28.083Z,100186.46
2018-06-10T08:53:02.071Z,100189.72
2018-06-10T08:55:35.494Z,100192.26
2018-06-10T08:58:09.037Z,100186.98
2018-06-10T09:00:42.467Z,100188.81
2018-06-10T09:03:15.857Z,100189.28
2018-06-10T09:05:49.245Z,100190.13
2018-06-10T09:08:22.638Z,100191.16
2018-06-10T09:10:56.001Z,100190.80
2018-06-10T09:13:29.439Z,100193.56
2018-06-10T09:16:02.836Z,100185.20
2018-06-10T09:18:36.222Z,100187.06
2018-06-10T09:21:09.608Z,100189.83
2018-06-10T09:23:43.007Z,100196.63
2018-06-10T09:26:16.407Z,100205.19
2018-06-10T09:28:49.874Z,100192.45
2018-06-10T09:31:23.231Z,100202.45
2018-06-10T09:33:56.644Z,100206.88
2018-06-10T09:36:30.025Z,100204.13
2018-06-10T09:39:03.701Z,100208.74
2018-06-10T09:41:37.068Z,100211.28
2018-06-10T09:44:10.472Z,100214.59
2018-06-10T09:46:43.877Z,100203.58
2018-06-10T09:49:17.279Z,100211.64
2018-06-10T09:51:50.685Z,100213.38
2018-06-10T09:54:24.069Z,100205.70
2018-06-10T09:56:57.468Z,100208.92
2018-06-10T09:59:30.863Z,100211.50
2018-06-10T10:02:04.260Z,100211.44
2018-06-10T10:04:37.683Z,100215.44
2018-06-10T10:07:11.129Z,100214.09
2018-06-10T10:09:44.509Z,100219.10
2018-06-10T10:12:17.889Z,100215.98
2018-06-10T10:14:51.267Z,100223.75
2018-06-10T10:17:24.698Z,100225.53
2018-06-10T10:19:58.107Z,100228.04
2018-06-10T10:22:31.511Z,100241.79
2018-06-10T10:25:04.912Z,100235.02
2018-06-10T10:27:38.332Z,100229.35
2018-06-10T10:30:11.731Z,100240.49
2018-06-10T10:32:45.188Z,100232.23
2018-06-10T10:35:18.564Z,100232.39
2018-06-10T10:37:51.946Z,100229.73
2018-06-10T10:40:25.326Z,100241.50
2018-06-10T10:42:58.751Z,100233.64
2018-06-10T10:45:32.113Z,100239.09
2018-06-10T10:48:05.494Z,100242.33
2018-06-10T10:50:38.869Z,100234.09
2018-06-10T10:53:12.240Z,100243.69
2018-06-10T10:55:45.623Z,100233.37
2018-06-10T10:58:19.004Z,100243.15
2018-06-10T11:00:52.380Z,100239.81
2018-06-10T11:03:25.811Z,100241.95
2018-06-10T11:05:59.170Z,100241.18
2018-06-10T11:08:32.567Z,100237.69
2018-06-10T11:11:05.971Z,100231.14
2018-06-10T11:13:39.399Z,100233.06
2018-06-10T11:16:12.764Z,100231.00
2018-06-10T11:18:46.148Z,100231.00
2018-06-10T11:21:19.500Z,100232.67
2018-06-10T11:23:52.858Z,100230.11
2018-06-10T11:26:26.295Z,100227.38
2018-06-10T11:28:59.692Z,100222.14
2018-06-10T11:31:33.318Z,100223.51
2018-06-10T11:34:06.797Z,100219.78
2018-06-10T11:36:40.165Z,100218.94
2018-06-10T11:39:13.567Z,100211.33
2018-06-10T11:41:46.917Z,100207.82
2018-06-10T11:44:20.297Z,100205.11
2018-06-10T11:46:54.166Z,100206.91
2018-06-10T11:49:27.706Z,100203.19
2018-06-10T11:52:01.140Z,100219.68
2018-06-10T11:54:34.552Z,100220.48
2018-06-10T11:57:07.912Z,100203.95
2018-06-10T11:59:41.328Z,100206.02
2018-06-10T12:02:14.703Z,100204.07
2018-06-10T12:04:48.122Z,100200.91
2018-06-10T12:07:21.471Z,100203.41
2018-06-10T12:09:54.859Z,100196.87
2018-06-10T12:12:28.387Z,100196.30
2018-06-10T12:15:01.940Z,100196.34
2018-06-10T12:17:35.325Z,100193.16
2018-06-10T12:20:08.720Z,100197.91
2018-06-10T12:22:42.143Z,100195.52
2018-06-10T12:25:15.632Z,100194.23
2018-06-10T12:27:49.020Z,100196.16
2018-06-10T12:30:22.406Z,100200.19
2018-06-10T12:32:56.603Z,100195.73
2018-06-10T12:35:30.042Z,100194.59
2018-06-10T12:38:03.443Z,100185.42
2018-06-10T12:40:36.832Z,100178.87
2018-06-10T12:43:10.201Z,100180.75
2018-06-10T12:45:43.588Z,100171.38
2018-06-10T12:48:16.993Z,100164.30
2018-06-10T12:50:50.379Z,100151.82
2018-06-10T12:53:23.753Z,100165.08
2018-06-10T12:55:57.207Z,100165.22
2018-06-10T12:58:30.592Z,100169.51
2018-06-10T13:01:04.025Z,100177.91
2018-06-10T13:03:37.444Z,100173.02
2018-06-10T13:06:10.847Z,100171.82
2018-06-10T13:08:44.211Z,100173.94
2018-06-10T13:11:17.619Z,100170.55
2018-06-10T13:13:51.024Z,100166.52
2018-06-10T13:16:24.396Z,100164.03
2018-06-10T13:18:57.859Z,100167.97
2018-06-10T13:21:31.266Z,100171.70
2018-06-10T13:24:04.656Z,100177.55
2018-06-10T13:26:38.064Z,100192.22
2018-06-10T13:29:11.424Z,100191.67
2018-06-10T13:31:44.826Z,100190.14
2018-06-10T13:34:18.177Z,100189.71
2018-06-10T13:36:51.592Z,100193.70
2018-06-10T13:39:25.002Z,100192.05
2018-06-10T13:41:58.375Z,100202.36
2018-06-10T13:44:31.757Z,100208.94
2018-06-10T13:47:05.159Z,100208.58
2018-06-10T13:49:38.619Z,100203.98
2018-06-10T13:52:11.991Z,100204.09
2018-06-10T13:54:45.423Z,100203.38
2018-06-10T13:57:18.778Z,100212.75
2018-06-10T13:59:52.170Z,100214.43
2018-06-10T14:02:25.564Z,100218.54
2018-06-10T14:04:58.944Z,100223.20
2018-06-10T14:07:32.309Z,100224.73
2018-06-10T14:10:05.698Z,100222.66
2018-06-10T14:12:39.050Z,100221.91
2018-06-10T14:15:12.518Z,100214.03
2018-06-10T14:17:46.916Z,100206.72
2018-06-10T14:20:20.302Z,100206.28
2018-06-10T14:22:53.705Z,100200.92
2018-06-10T14:25:27.111Z,100192.70
2018-06-10T14:28:00.533Z,100193.68
2018-06-10T14:30:33.930Z,100196.25
2018-06-10T14:33:07.310Z,100191.62
2018-06-10T14:35:40.706Z,100194.18
2018-06-10T14:38:20.445Z,100199.03
2018-06-10T14:40:53.850Z,100188.41
2018-06-10T14:43:27.236Z,100184.62
2018-06-10T14:46:00.614Z,100185.46
2018-06-10T14:48:33.962Z,100179.56
2018-06-10T14:51:07.346Z,100178.70
2018-06-10T14:53:40.711Z,100180.00
2018-06-10T14:56:14.097Z,100186.52
2018-06-10T14:58:47.462Z,100182.44
2018-06-10T15:01:20.853Z,100191.70
2018-06-10T15:03:54.238Z,100186.47
2018-06-10T15:06:28.161Z,100193.34
2018-06-10T15:09:01.506Z,100198.64
2018-06-10T15:11:34.881Z,100197.55
2018-06-10T15:14:08.313Z,100191.81
2018-06-10T15:16:41.693Z,100197.40
2018-06-10T15:19:15.063Z,100200.14
2018-06-10T15:21:48.450Z,100205.08
2018-06-10T15:24:21.844Z,100205.77
2018-06-10T15:26:55.249Z,100205.30
2018-06-10T15:29:28.638Z,100206.95
2018-06-10T15:32:02.117Z,100208.62
2018-06-10T15:34:35.539Z,100211.55
2018-06-10T15:37:08.942Z,100214.63
2018-06-10T15:39:42.334Z,100210.30
2018-06-10T15:42:15.746Z,100213.23
2018-06-10T15:44:49.125Z,100211.84
2018-06-10T15:47:22.624Z,100208.12
2018-06-10T15:49:56.024Z,100209.58
2018-06-10T15:52:29.469Z,100211.23
2018-06-10T15:55:02.853Z,100205.98
2018-06-10T15:57:36.241Z,100210.53
2018-06-10T16:00:09.677Z,100202.18
2018-06-10T16:02:43.065Z,100202.56
2018-06-10T16:05:16.511Z,100199.80
2018-06-10T16:07:49.898Z,100202.23
2018-06-10T16:10:23.306Z,100207.20
2018-06-10T16:12:56.796Z,100209.40
2018-06-10T16:15:30.192Z,100212.71
2018-06-10T16:18:03.597Z,100210.25
2018-06-10T16:20:36.985Z,100206.72
2018-06-10T16:23:10.384Z,100207.26
2018-06-10T16:25:43.781Z,100200.94
2018-06-10T16:28:17.187Z,100213.55
2018-06-10T16:30:50.581Z,100206.06
2018-06-10T16:33:23.982Z,100218.66
2018-06-10T16:35:57.420Z,100212.59
2018-06-10T16:38:30.851Z,100216.52
2018-06-10T16:41:04.428Z,100215.05
2018-06-10T16:43:37.884Z,100208.73
2018-06-10T16:46:11.247Z,100199.73
2018-06-10T16:48:44.673Z,100200.55
2018-06-10T16:51:18.094Z,100201.10
2018-06-10T16:53:51.484Z,100195.88
2018-06-10T16:56:24.878Z,100200.55
2018-06-10T16:58:58.377Z,100201.31
2018-06-10T17:01:31.789Z,100191.73
2018-06-10T17:04:05.187Z,100194.56
2018-06-10T17:06:38.607Z,100193.86
2018-06-10T17:09:11.959Z,100181.65
2018-06-10T17:11:45.380Z,100187.95
2018-06-10T17:14:18.764Z,100188.45
2018-06-10T17:16:52.132Z,100183.48
2018-06-10T17:19:25.551Z,100187.25
2018-06-10T17:21:58.931Z,100196.63
2018-06-10T17:24:32.396Z,100193.95
2018-06-10T17:27:05.761Z,100193.80
2018-06-10T17:29:39.120Z,100193.52
2018-06-10T17:32:12.499Z,100196.41
2018-06-10T17:34:45.926Z,100199.91
2018-06-10T17:37:19.259Z,100194.27
2018-06-10T17:39:52.634Z,100205.05
2018-06-10T17:42:26.035Z,100205.25
2018-06-10T17:44:59.425Z,100203.88
2018-06-10T17:47:32.881Z,100197.97
2018-06-10T17:50:06.188Z,100200.48
2018-06-10T17:52:39.569Z,100196.37
2018-06-10T17:55:12.941Z,100200.78
2018-06-10T17:57:46.320Z,100199.59
2018-06-10T18:00:19.724Z,100203.78
2018-06-10T18:02:53.121Z,100204.53
2018-06-10T18:05:26.495Z,100200.76
2018-06-10T18:07:59.883Z,100205.06
2018-06-10T18:10:33.244Z,100207.20
2018-06-10T18:13:06.661Z,100206.41
2018-06-10T18:15:40.061Z,100208.83
2018-06-10T18:18:13.448Z,100213.57
2018-06-10T18:20:46.830Z,100216.59
2018-06-10T18:23:20.236Z,100211.14
2018-06-10T18:25:53.575Z,100217.67
2018-06-10T18:28:27.007Z,100216.96
2018-06-10T18:31:00.388Z,100222.45
2018-06-10T18:33:33.790Z,100226.42
2018-06-10T18:36:07.143Z,100223.59
2018-06-10T18:38:40.553Z,100227.68
2018-06-10T18:41:13.912Z,100223.45
2018-06-10T18:43:47.322Z,100226.95
2018-06-10T18:46:20.694Z,100227.68
2018-06-10T18:48:54.065Z,100233.39
2018-06-10T18:51:27.482Z,100233.18
2018-06-10T18:54:00.865Z,100222.88
2018-06-10T18:56:34.212Z,100223.95
2018-06-10T18:59:07.584Z,100227.61
2018-06-10T19:01:40.947Z,100222.64
2018-06-10T19:04:14.360Z,100228.83
2018-06-10T19:06:47.720Z,100232.06
2018-06-10T19:09:21.104Z,100234.92
2018-06-10T19:11:54.488Z,100239.72
2018-06-10T19:14:27.922Z,100239.73
2018-06-10T19:17:01.287Z,100243.46
2018-06-10T19:19:34.668Z,100241.20
2018-06-10T19:22:08.051Z,100244.44
2018-06-10T19:24:41.471Z,100246.91
2018-06-10T19:27:14.819Z,100254.25
2018-06-10T19:29:48.205Z,100256.53
2018-06-10T19:32:21.569Z,100256.12
2018-06-10T19:34:55.021Z,100256.13
2018-06-10T19:37:28.372Z,100264.88
2018-06-10T19:40:01.777Z,100269.06
2018-06-10T19:42:35.135Z,100267.66
2018-06-10T19:45:08.508Z,100272.98
2018-06-10T19:47:41.861Z,100274.17
2018-06-10T19:50:15.262Z,100275.26
2018-06-10T19:52:48.652Z,100284.13
2018-06-10T19:55:22.025Z,100286.52
2018-06-10T19:57:55.411Z,100291.27
2018-06-10T20:00:28.822Z,100299.53
2018-06-10T20:03:02.197Z,100300.96
2018-06-10T20:05:35.590Z,100305.92
2018-06-10T20:08:08.971Z,100311.74
2018-06-10T20:10:42.362Z,100310.42
2018-06-10T20:13:16.171Z,100314.27
2018-06-10T20:15:49.666Z,100321.24
2018-06-10T20:18:23.114Z,100324.78
2018-06-10T20:20:56.504Z,100319.05
2018-06-10T20:23:29.880Z,100320.09
2018-06-10T20:26:03.277Z,100317.80
2018-06-10T20:28:36.641Z,100326.30
2018-06-10T20:31:10.086Z,100331.81
2018-06-10T20:33:43.521Z,100332.09
2018-06-10T20:36:16.927Z,100328.13
2018-06-10T20:38:50.431Z,100337.66
2018-06-10T20:41:23.791Z,100358.05
2018-06-10T20:43:57.180Z,100357.55
2018-06-10T20:46:30.914Z,100359.06
2018-06-10T20:49:04.311Z,100359.63
2018-06-10T20:51:37.670Z,100358.34
2018-06-10T20:54:11.076Z,100363.60
2018-06-10T20:56:44.443Z,100364.28
2018-06-10T20:59:17.838Z,100358.38
2018-06-10T21:01:51.203Z,100363.43
2018-06-10T21:04:24.584Z,100359.95
2018-06-10T21:06:58.024Z,100355.13
2018-06-10T21:09:31.394Z,100352.03
2018-06-10T21:12:04.768Z,100355.03
2018-06-10T21:14:38.181Z,100359.81
2018-06-10T21:17:11.570Z,100365.09
2018-06-10T21:19:44.948Z,100369.66
2018-06-10T21:22:18.297Z,100366.52
2018-06-10T21:24:51.700Z,100367.16
2018-06-10T21:27:25.083Z,100360.23
2018-06-10T21:29:58.651Z,100364.25
2018-06-10T21:32:31.996Z,100357.24
2018-06-10T21:35:05.386Z,100355.01
2018-06-10T21:37:38.761Z,100350.80
2018-06-10T21:40:12.150Z,100359.25
2018-06-10T21:42:45.500Z,100358.86
2018-06-10T21:45:18.888Z,100355.98
2018-06-10T21:47:52.245Z,100356.53
2018-06-10T21:50:25.631Z,100363.02
2018-06-10T21:52:58.998Z,100361.83
2018-06-10T21:55:32.405Z,100364.98
2018-06-10T21:58:05.775Z,100354.91
2018-06-10T22:00:39.173Z,100365.95
2018-06-10T22:03:12.604Z,100361.23
2018-06-10T22:05:45.995Z,100356.61
2018-06-10T22:08:19.340Z,100363.92
2018-06-10T22:10:52.744Z,100372.00
2018-06-10T22:13:26.138Z,100362.77
2018-06-10T22:15:59.652Z,100364.72
2018-06-10T22:18:33.019Z,100374.45
2018-06-10T22:21:06.449Z,100367.80
2018-06-10T22:23:39.811Z,100371.31
2018-06-10T22:26:13.207Z,100369.66
2018-06-10T22:28:46.571Z,100370.59
2018-06-10T22:31:19.994Z,100368.95
2018-06-10T22:33:53.392Z,100366.34
2018-06-10T22:36:27.140Z,100363.75
2018-06-10T22:39:00.508Z,100368.38
2018-06-10T22:41:33.885Z,100366.27
2018-06-10T22:44:07.260Z,100375.80
2018-06-10T22:46:40.662Z,100381.99
2018-06-10T22:49:14.058Z,100385.60
2018-06-10T22:51:47.457Z,100389.45
2018-06-10T22:54:52.719Z,100392.70
2018-06-10T22:57:26.152Z,100395.00
2018-06-10T22:59:59.529Z,100391.97
2018-06-10T23:02:32.929Z,100388.34
2018-06-10T23:05:06.332Z,100388.45
2018-06-10T23:07:39.721Z,100378.92
2018-06-10T23:10:13.105Z,100369.09
2018-06-10T23:12:46.500Z,100375.03
2018-06-10T23:15:19.891Z,100386.20
2018-06-10T23:17:53.273Z,100391.02
2018-06-10T23:20:26.960Z,100388.12
2018-06-10T23:23:00.314Z,100396.06
2018-06-10T23:25:33.693Z,100394.12
2018-06-10T23:28:07.062Z,100388.75
2018-06-10T23:30:41.394Z,100388.39
2018-06-10T23:33:15.594Z,100386.44
2018-06-10T23:35:50.052Z,100381.50
2018-06-10T23:38:24.453Z,100384.20
2018-06-10T23:40:58.820Z,100385.39
2018-06-10T23:43:33.093Z,100390.30
2018-06-10T23:46:07.342Z,100385.47
2018-06-10T23:48:40.718Z,100385.28
2018-06-10T23:51:14.104Z,100385.02
2018-06-10T23:53:47.463Z,100386.88
2018-06-10T23:56:20.842Z,100391.30
2018-06-10T23:58:54.202Z,100391.86
